Nearby METAR Reports

 

KPLU - Puyallup/Thun, Washington, USA
Distance from station: SSW 10mi, 16km
Updated: Wed, 21-Feb-2018 4:15pm PST
Light snow, Few clouds
Light snow, Few clouds
 Wind from calm
Wind: Calm
Temperature: 32°F , 0°C
Dew Point: 30°F , -1°C
Humidity: 93%
Barometer: 30.24 inHg , 1024 hPa
Summary: Light Snow
Clouds: Few Clouds
Visibility: 2 miles , 3 km
Cloud details: Few Clouds 1100 ft
2018/02/22 00:15 KPLU 220015Z AUTO 00000KT 2SM -SN FEW011 M00/M01 A3024 RMK AO2
KTCM - Tacoma/Mc Chord, Washington, USA
Distance from station: SW 15mi, 24km
Updated: Wed, 21-Feb-2018 3:58pm PST
Overcast
Overcast
 Wind from SSE
Wind: SSE 6 mph , 9 km/h
Temperature: 32°F , 0°C
Wind Chill: 26°F , -3°C
Dew Point: 30°F , -1°C
Humidity: 93%
Barometer: 30.24 inHg , 1024 hPa
Clouds: Overcast
Visibility: 10 miles , 16 km
Cloud details: Partly cloudy 3500 ft
Overcast 4200 ft
2018/02/21 23:58 KTCM 212358Z AUTO 15005KT 10SM SCT035 OVC042 00/M01 A3024 RMK AO2 SLPNO T00031009 10006 21012 57019 CHINO RWY16 $
 
KSEA - Seattle/Metro, Washington, USA
Distance from station: NNW 16mi, 25km
Updated: Wed, 21-Feb-2018 3:53pm PST
Overcast
Overcast
 Wind from S
Wind: S 9 mph , 15 km/h
Temperature: 34°F , 1°C
Wind Chill: 27°F , -3°C
Dew Point: 25°F , -4°C
Humidity: 70%
Barometer: 30.24 inHg , 1024 hPa
Clouds: Overcast
Visibility: 10 miles , 16 km
Cloud details: Few Clouds 3000 ft
Overcast 6000 ft
2018/02/21 23:53 KSEA 212353Z 18008KT 10SM FEW030 OVC060 01/M04 A3024 RMK AO2 SNE08 SLP250 P0000 60000 T00061039 10011 21011 56016
KRNT - Renton, Washington, USA
Distance from station: N 18mi, 29km
Updated: Wed, 21-Feb-2018 3:53pm PST
Overcast
Overcast
 Wind from SE
Wind: SE 7 mph , 11 km/h
Temperature: 34°F , 1°C
Wind Chill: 28°F , -2°C
Dew Point: 25°F , -4°C
Humidity: 70%
Barometer: 30.26 inHg , 1024.7 hPa
Clouds: Overcast
Visibility: 10 miles , 16 km
Cloud details: Mostly cloudy 2500 ft
Mostly cloudy 3500 ft
Overcast 5000 ft
2018/02/21 23:53 KRNT 212353Z 13006KT 10SM BKN025 BKN035 OVC050 01/M04 A3026 RMK AO2 SLP252 T00111039 10022 20000 56015
 
KTIW - Tacoma, Washington, USA
Distance from station: W 18mi, 29km
Updated: Wed, 21-Feb-2018 3:53pm PST
Overcast
Overcast
 Wind from S
Wind: S 7 mph , 11 km/h
Temperature: 34°F , 1°C
Wind Chill: 28°F , -2°C
Dew Point: 25°F , -4°C
Humidity: 70%
Barometer: 30.24 inHg , 1024 hPa
Clouds: Overcast
Visibility: 9 miles , 14 km
Cloud details: Partly cloudy 2800 ft
Overcast 4800 ft
2018/02/21 23:53 KTIW 212353Z 18006KT 9SM SCT028 OVC048 01/M04 A3024 RMK AO2 SNE49 SLP246 P0000 60000 T00061039 10006 21017 58019
KGRF - Fort Lewis/Gray, Washington, USA
Distance from station: SW 21mi, 33km
Updated: Wed, 21-Feb-2018 3:58pm PST
Overcast
Overcast
 Wind from SE
Wind: SE 9 mph , 15 km/h
Temperature: 34°F , 1°C
Wind Chill: 27°F , -3°C
Dew Point: 32°F , 0°C
Humidity: 93%
Barometer: 30.23 inHg , 1023.7 hPa
Clouds: Overcast
Visibility: 10 miles , 16 km
Cloud details: Overcast 5000 ft
2018/02/21 23:58 KGRF 212358Z 14008KT 10SM OVC050 01/00 A3023 RMK AO2A SHSNE2258SHNB2258E18 SLPNO P0000 60000 4/0000 T00091004 10009 21026 57020 $
 
KBFI - Seattle/Boeing, Washington, USA
Distance from station: NNW 22mi, 36km
Updated: Wed, 21-Feb-2018 3:53pm PST
Overcast
Overcast
 Wind from SSE
Wind: SSE 9 mph , 15 km/h
Temperature: 36°F , 2°C
Wind Chill: 29°F , -2°C
Dew Point: 27°F , -3°C
Humidity: 70%
Barometer: 30.26 inHg , 1024.7 hPa
Clouds: Overcast
Visibility: 10 miles , 16 km
Cloud details: Partly cloudy 2500 ft
Partly cloudy 4500 ft
Overcast 6500 ft
2018/02/21 23:53 KBFI 212353Z 16008KT 10SM SCT025 SCT045 OVC065 02/M03 A3026 RMK AO2 SLP246 T00171033 10017 21006 58016
KPWT - Bremerton Ntnl, Washington, USA
Distance from station: NW 31mi, 50km
Updated: Wed, 21-Feb-2018 4:29pm PST
Overcast
Overcast
 Wind from SSW
Wind: SSW 6 mph , 9 km/h
Temperature: 32°F , 0°C
Wind Chill: 26°F , -3°C
Dew Point: 27°F , -3°C
Humidity: 80%
Barometer: 30.22 inHg , 1023.4 hPa
Clouds: Overcast
Visibility: 10 miles , 16 km
Cloud details: Mostly cloudy 2100 ft
Overcast 3200 ft
2018/02/22 00:29 KPWT 220029Z AUTO 21005KT 10SM BKN021 OVC032 00/M03 A3022 RMK AO2 FZRANO
 
KOLM - Olympia, Washington, USA
Distance from station: WSW 38mi, 60km
Updated: Wed, 21-Feb-2018 3:54pm PST
Overcast
Overcast
 Wind from S
Wind: S 8 mph , 13 km/h
Temperature: 32°F , 0°C
Wind Chill: 25°F , -4°C
Dew Point: 28°F , -2°C
Humidity: 87%
Barometer: 30.25 inHg , 1024.4 hPa
Clouds: Overcast
Visibility: 10 miles , 16 km
Cloud details: Mostly cloudy 5000 ft
Overcast 6000 ft
2018/02/21 23:54 KOLM 212354Z 19007KT 10SM BKN050 OVC060 00/M02 A3025 RMK AO2 SLP246 T00001022 10000 21028 57021
KSMP - Stampede Pass, Washington, USA
Distance from station: E 41mi, 66km
Updated: Wed, 21-Feb-2018 3:56pm PST
Light snow, Mist, Overcast
Light snow, Mist, Overcast
 Wind from varies
Wind: varies 3 mph , 6 km/h
Temperature: 18°F , -8°C
Dew Point: 16°F , -9°C
Humidity: 93%
Barometer: 30.00 inHg , 1015.9 hPa
Summary: Light snow, Mist
Clouds: Overcast
Visibility: 1 1/4 miles , 2 km
Cloud details: Mostly cloudy 2000 ft
Overcast 3500 ft
2018/02/21 23:56 KSMP 212356Z AUTO VRB03KT 1 1/4SM -SN BR BKN020 OVC035 M08/M09 A3000 RMK AO2 SLP216 P0001 60001 T10781089 11067 21100 56013
 
KSHN - Shelton, Washington, USA
Distance from station: W 43mi, 70km
Updated: Wed, 21-Feb-2018 3:53pm PST
Overcast
Overcast
 Wind from SW
Wind: SW 5 mph , 7 km/h
Temperature: 34°F , 1°C
Wind Chill: 29°F , -2°C
Dew Point: 28°F , -2°C
Humidity: 81%
Barometer: 30.22 inHg , 1023.4 hPa
Clouds: Overcast
Visibility: 10 miles , 16 km
Cloud details: Few Clouds 5000 ft
Mostly cloudy 6000 ft
Overcast 7500 ft
2018/02/21 23:53 KSHN 212353Z AUTO 23004KT 10SM FEW050 BKN060 OVC075 01/M02 A3022 RMK AO2 SLP240 I6000 T00111017 10011 21033 58021
KPAE - Everett, Washington, USA
Distance from station: N 47mi, 76km
Updated: Wed, 21-Feb-2018 4:27pm PST
Light snow, Overcast
Light snow, Overcast
 Wind from varies
Wind: varies 3 mph , 6 km/h
Temperature: 30°F , -1°C
Dew Point: 21°F , -6°C
Humidity: 69%
Barometer: 30.22 inHg , 1023.4 hPa
Summary: Light Snow
Clouds: Overcast
Visibility: 2 1/2 miles , 2 km
Cloud details: Mostly cloudy 900 ft
Overcast 5500 ft
2018/02/22 00:27 KPAE 220027Z VRB03KT 2 1/2SM -SN BKN009 OVC055 M01/M06 A3022 RMK AO2 P0000 T10061056